Time;durP1;ratioP1;P1;durP2;ratioP2;P2;SDS_P1;SDS_P2;PMS_P1;PMS_P2;Temp;Humidity;BMP_temperature;BMP_pressure;BME280_temperature;BME280_humidity;BME280_pressure;Samples;Min_cycle;Max_cycle;Signal;HPM_P1;HPM_P2
2023/09/11 00:00:23;;;;;;;26.17;17.20;;;;;;;;;;5050609;28;20048;-83
2023/09/11 00:02:49;;;;;;;25.17;16.25;;;;;;;;;;5069845;28;20043;-85
2023/09/11 00:05:16;;;;;;;20.45;16.05;;;;;;;;;;5046235;28;20041;-84
2023/09/11 00:07:42;;;;;;;23.95;15.68;;;;;;;;;;5053280;28;20511;-85
2023/09/11 00:10:09;;;;;;;27.38;15.98;;;;;;;;;;5036667;28;20143;-86
2023/09/11 00:12:35;;;;;;;23.42;15.90;;;;;;;;;;5047868;28;20382;-86
2023/09/11 00:15:01;;;;;;;19.92;15.15;;;;;;;;;;5052191;28;20032;-86
2023/09/11 00:17:27;;;;;;;23.17;16.30;;;;;;;;;;5041961;28;20416;-86
2023/09/11 00:19:54;;;;;;;23.20;15.20;;;;;;;;;;5044873;28;20098;-86
2023/09/11 00:22:20;;;;;;;21.52;16.02;;;;;;;;;;5056468;28;20051;-83
2023/09/11 00:24:46;;;;;;;23.38;15.30;;;;;;;;;;5015651;28;1158508;-84
2023/09/11 00:27:12;;;;;;;25.23;15.70;;;;;;;;;;5073589;28;20044;-86
2023/09/11 00:29:38;;;;;;;24.85;15.60;;;;;;;;;;5056389;28;20044;-86
2023/09/11 00:32:05;;;;;;;25.08;15.85;;;;;;;;;;5072929;28;20067;-84
2023/09/11 00:34:31;;;;;;;23.70;15.45;;;;;;;;;;5072295;28;20045;-84
2023/09/11 00:36:57;;;;;;;22.63;14.75;;;;;;;;;;5056291;28;20117;-86
2023/09/11 00:39:23;;;;;;;22.52;14.27;;;;;;;;;;5056218;28;20060;-86
2023/09/11 00:41:49;;;;;;;22.92;15.38;;;;;;;;;;5056007;28;20037;-86
2023/09/11 00:44:16;;;;;;;23.65;15.18;;;;;;;;;;5055894;28;20202;-86
2023/09/11 00:46:42;;;;;;;26.05;16.08;;;;;;;;;;5039921;28;20103;-86
2023/09/11 00:49:09;;;;;;;23.85;15.90;;;;;;;;;;5038412;28;20041;-85
2023/09/11 00:51:35;;;;;;;23.20;14.82;;;;;;;;;;5066079;28;20052;-85
2023/09/11 00:54:02;;;;;;;22.27;15.05;;;;;;;;;;5046916;28;20041;-86
2023/09/11 00:56:28;;;;;;;21.30;14.68;;;;;;;;;;5059663;28;20045;-86
2023/09/11 00:58:54;;;;;;;22.67;14.50;;;;;;;;;;5052061;28;20037;-86
2023/09/11 01:01:22;;;;;;;23.40;15.02;;;;;;;;;;5036096;28;20045;-86
2023/09/11 01:03:48;;;;;;;22.52;14.70;;;;;;;;;;5065989;28;20041;-86
2023/09/11 01:06:14;;;;;;;20.25;15.38;;;;;;;;;;5050595;28;20392;-85
2023/09/11 01:08:40;;;;;;;24.05;14.40;;;;;;;;;;5051402;28;20045;-84
2023/09/11 01:11:06;;;;;;;20.02;14.68;;;;;;;;;;5059403;28;20538;-85
2023/09/11 01:13:33;;;;;;;19.95;14.50;;;;;;;;;;5055290;28;20063;-85
2023/09/11 01:16:05;;;;;;;27.42;15.32;;;;;;;;;;5056816;28;20121;-85
2023/09/11 01:18:39;;;;;;;26.85;15.27;;;;;;;;;;5058893;28;20043;-84
2023/09/11 01:21:08;;;;;;;23.15;14.40;;;;;;;;;;5050764;28;20044;-85
2023/09/11 01:24:00;;;;;;;25.20;14.90;;;;;;;;;;5055925;28;20053;-85
2023/09/11 01:26:29;;;;;;;20.80;14.10;;;;;;;;;;5046295;28;20045;-85
2023/09/11 01:29:22;;;;;;;23.58;14.18;;;;;;;;;;5059164;28;20041;-85
2023/09/11 01:31:48;;;;;;;23.48;14.95;;;;;;;;;;5046276;28;20120;-85
2023/09/11 01:34:14;;;;;;;18.50;13.88;;;;;;;;;;5047214;28;20036;-86
2023/09/11 01:36:40;;;;;;;26.23;14.88;;;;;;;;;;5056824;28;20049;-86
2023/09/11 01:39:06;;;;;;;22.13;14.73;;;;;;;;;;5075464;28;20512;-85
2023/09/11 01:41:34;;;;;;;22.85;15.10;;;;;;;;;;5057746;28;20392;-85
2023/09/11 01:44:04;;;;;;;27.95;15.00;;;;;;;;;;5057191;28;20036;-85
2023/09/11 01:46:33;;;;;;;24.42;14.63;;;;;;;;;;5061997;28;20114;-85
2023/09/11 01:49:00;;;;;;;25.88;15.25;;;;;;;;;;5046824;28;20040;-85
2023/09/11 01:51:26;;;;;;;25.05;13.82;;;;;;;;;;5047169;28;20048;-86
2023/09/11 01:53:53;;;;;;;22.73;14.68;;;;;;;;;;5055737;28;20555;-87
2023/09/11 01:56:19;;;;;;;22.40;13.93;;;;;;;;;;5064754;28;20126;-84
2023/09/11 01:58:45;;;;;;;23.65;14.65;;;;;;;;;;5073113;28;20117;-85
2023/09/11 02:01:11;;;;;;;27.02;14.60;;;;;;;;;;5056680;28;20182;-85
2023/09/11 02:03:40;;;;;;;24.35;13.73;;;;;;;;;;5057392;28;20075;-85
2023/09/11 02:06:06;;;;;;;23.40;13.25;;;;;;;;;;5067798;28;20041;-85
2023/09/11 02:08:33;;;;;;;18.95;14.00;;;;;;;;;;5054469;28;20132;-85
2023/09/11 02:10:59;;;;;;;20.60;13.60;;;;;;;;;;5056245;28;20072;-85
2023/09/11 02:13:25;;;;;;;28.65;14.48;;;;;;;;;;5054423;28;20048;-84
2023/09/11 02:15:51;;;;;;;19.95;13.70;;;;;;;;;;5050265;28;20489;-84
2023/09/11 02:18:18;;;;;;;21.20;13.85;;;;;;;;;;5058527;28;20052;-86
2023/09/11 02:20:47;;;;;;;25.05;13.77;;;;;;;;;;5051828;28;20439;-86
2023/09/11 02:23:14;;;;;;;19.13;13.23;;;;;;;;;;5057779;28;20400;-86
2023/09/11 02:25:41;;;;;;;20.27;12.80;;;;;;;;;;5052375;28;20485;-86
2023/09/11 02:28:07;;;;;;;27.20;13.80;;;;;;;;;;5062748;28;20053;-86
2023/09/11 02:30:33;;;;;;;19.95;12.35;;;;;;;;;;5073437;28;20094;-85
2023/09/11 02:32:59;;;;;;;34.10;13.02;;;;;;;;;;5039797;28;20045;-86
2023/09/11 02:35:25;;;;;;;31.33;13.95;;;;;;;;;;5064175;28;20040;-85
2023/09/11 02:37:51;;;;;;;24.45;13.27;;;;;;;;;;5061127;28;20068;-85
2023/09/11 02:40:17;;;;;;;25.95;13.05;;;;;;;;;;5038691;28;20044;-85
2023/09/11 02:42:46;;;;;;;24.80;13.45;;;;;;;;;;5054829;28;20044;-86
2023/09/11 02:45:12;;;;;;;34.88;13.32;;;;;;;;;;5037401;28;20045;-84
2023/09/11 02:47:39;;;;;;;21.15;12.30;;;;;;;;;;5054824;28;20037;-85
2023/09/11 02:50:05;;;;;;;26.15;12.73;;;;;;;;;;5055085;28;20116;-85
2023/09/11 02:52:31;;;;;;;23.73;13.32;;;;;;;;;;5055662;28;20059;-85
2023/09/11 02:54:57;;;;;;;24.05;13.15;;;;;;;;;;5071422;28;20064;-84
2023/09/11 02:57:23;;;;;;;24.38;13.20;;;;;;;;;;5039258;28;20041;-85
2023/09/11 02:59:54;;;;;;;19.52;12.52;;;;;;;;;;5056884;28;20044;-84
2023/09/11 03:02:20;;;;;;;25.17;12.60;;;;;;;;;;5068624;28;20036;-84
2023/09/11 03:04:46;;;;;;;21.52;12.77;;;;;;;;;;5037614;28;20465;-85
2023/09/11 03:07:14;;;;;;;22.75;12.77;;;;;;;;;;5039208;28;20382;-85
2023/09/11 03:09:40;;;;;;;22.58;13.07;;;;;;;;;;5053171;28;20041;-85
2023/09/11 03:12:07;;;;;;;21.85;12.52;;;;;;;;;;5054767;28;20424;-85
2023/09/11 03:14:33;;;;;;;22.63;12.05;;;;;;;;;;5066420;28;20044;-85
2023/09/11 03:16:59;;;;;;;23.58;12.98;;;;;;;;;;5057493;28;20055;-86
2023/09/11 03:19:25;;;;;;;24.90;13.68;;;;;;;;;;5060058;28;20041;-85
2023/09/11 03:21:54;;;;;;;25.83;12.77;;;;;;;;;;5061551;28;20093;-85
2023/09/11 03:24:21;;;;;;;23.02;12.98;;;;;;;;;;5043707;28;20059;-85
2023/09/11 03:26:47;;;;;;;23.08;12.68;;;;;;;;;;5062589;28;20476;-84
2023/09/11 03:29:13;;;;;;;30.60;12.77;;;;;;;;;;5048793;28;20393;-85
2023/09/11 03:31:40;;;;;;;28.52;13.50;;;;;;;;;;5065908;28;20072;-85
2023/09/11 03:34:06;;;;;;;22.55;12.77;;;;;;;;;;5082602;28;20045;-86
2023/09/11 03:36:32;;;;;;;24.38;13.00;;;;;;;;;;5085214;28;20051;-86
2023/09/11 03:38:58;;;;;;;26.98;13.27;;;;;;;;;;5069502;28;20048;-85
2023/09/11 03:41:24;;;;;;;24.98;13.02;;;;;;;;;;5079056;28;20052;-85
2023/09/11 03:43:50;;;;;;;25.67;12.93;;;;;;;;;;5080565;28;20036;-84
2023/09/11 03:46:16;;;;;;;25.80;13.45;;;;;;;;;;5055301;28;20036;-85
2023/09/11 03:48:42;;;;;;;22.67;12.18;;;;;;;;;;5053663;28;20097;-85
2023/09/11 03:51:08;;;;;;;21.83;12.52;;;;;;;;;;5057961;28;20128;-84
2023/09/11 03:53:34;;;;;;;25.58;13.80;;;;;;;;;;5074159;28;20051;-86
2023/09/11 03:56:01;;;;;;;24.88;13.18;;;;;;;;;;5067120;28;20056;-86
2023/09/11 03:58:27;;;;;;;30.65;13.57;;;;;;;;;;5073820;28;20040;-86
2023/09/11 04:00:54;;;;;;;25.40;13.63;;;;;;;;;;5072979;28;20524;-85
2023/09/11 04:03:20;;;;;;;26.67;13.35;;;;;;;;;;5056464;28;20052;-86
2023/09/11 04:05:46;;;;;;;23.83;12.63;;;;;;;;;;5054614;28;20087;-85
2023/09/11 04:08:12;;;;;;;22.00;13.43;;;;;;;;;;5056215;28;20045;-86
2023/09/11 04:10:38;;;;;;;23.52;12.88;;;;;;;;;;5054650;28;20048;-85
2023/09/11 04:13:04;;;;;;;23.10;12.52;;;;;;;;;;5062133;28;20516;-86
2023/09/11 04:15:30;;;;;;;24.30;13.10;;;;;;;;;;5073092;28;20047;-86
2023/09/11 04:17:57;;;;;;;22.67;13.10;;;;;;;;;;5043622;28;20040;-86
2023/09/11 04:20:23;;;;;;;29.92;13.90;;;;;;;;;;5052943;28;20091;-86
2023/09/11 04:22:49;;;;;;;28.02;13.18;;;;;;;;;;5036686;28;20041;-86
2023/09/11 04:25:15;;;;;;;29.33;13.38;;;;;;;;;;5036530;28;20049;-86
2023/09/11 04:27:42;;;;;;;27.88;13.05;;;;;;;;;;5053923;28;20056;-86
2023/09/11 04:30:08;;;;;;;28.38;13.07;;;;;;;;;;5063965;28;20442;-86
2023/09/11 04:32:34;;;;;;;25.38;13.23;;;;;;;;;;5072021;28;20080;-86
2023/09/11 04:35:00;;;;;;;28.50;12.98;;;;;;;;;;5056250;28;20041;-86
2023/09/11 04:37:26;;;;;;;26.63;14.13;;;;;;;;;;5071846;28;20044;-86
2023/09/11 04:39:52;;;;;;;30.70;13.35;;;;;;;;;;5055569;28;20139;-86
2023/09/11 04:42:19;;;;;;;24.02;12.50;;;;;;;;;;5074160;28;20040;-85
2023/09/11 04:44:45;;;;;;;30.45;12.82;;;;;;;;;;5055836;28;20053;-86
2023/09/11 04:47:11;;;;;;;31.02;13.88;;;;;;;;;;5072484;28;20131;-86
2023/09/11 04:49:38;;;;;;;25.83;13.40;;;;;;;;;;5052815;28;20048;-85
2023/09/11 04:52:04;;;;;;;27.00;13.23;;;;;;;;;;5066995;28;20076;-85
2023/09/11 04:54:31;;;;;;;26.52;12.88;;;;;;;;;;5072126;28;20120;-86
2023/09/11 04:56:57;;;;;;;32.08;13.80;;;;;;;;;;5051455;28;20373;-85
2023/09/11 04:59:23;;;;;;;26.33;13.07;;;;;;;;;;5053333;28;20079;-86
2023/09/11 05:01:49;;;;;;;27.77;13.05;;;;;;;;;;5047048;28;20565;-85
2023/09/11 05:04:15;;;;;;;24.88;13.35;;;;;;;;;;5051742;28;20049;-85
2023/09/11 05:06:41;;;;;;;27.27;13.23;;;;;;;;;;5062677;28;20386;-85
2023/09/11 05:09:07;;;;;;;30.73;13.23;;;;;;;;;;5034713;28;20401;-85
2023/09/11 05:11:33;;;;;;;27.55;12.50;;;;;;;;;;5065687;28;20048;-85
2023/09/11 05:14:00;;;;;;;23.42;12.95;;;;;;;;;;5035673;28;20045;-85
2023/09/11 05:16:26;;;;;;;27.20;12.93;;;;;;;;;;5054987;28;20115;-86
2023/09/11 05:18:52;;;;;;;28.08;13.05;;;;;;;;;;5043009;28;20404;-78
2023/09/11 05:21:18;;;;;;;30.70;12.57;;;;;;;;;;5042638;28;20045;-78
2023/09/11 05:23:44;;;;;;;30.67;13.50;;;;;;;;;;5070365;28;20110;-76
2023/09/11 05:26:10;;;;;;;28.67;13.15;;;;;;;;;;5071878;28;20040;-76
2023/09/11 05:28:36;;;;;;;25.42;12.15;;;;;;;;;;5071591;28;20102;-76
2023/09/11 05:31:02;;;;;;;24.52;11.93;;;;;;;;;;5071011;28;20041;-75
2023/09/11 05:33:28;;;;;;;28.65;12.48;;;;;;;;;;5070483;28;20049;-76
2023/09/11 05:35:54;;;;;;;27.52;12.27;;;;;;;;;;5071607;28;20564;-76
2023/09/11 05:38:20;;;;;;;37.70;12.90;;;;;;;;;;5069967;28;20041;-77
2023/09/11 05:40:46;;;;;;;27.10;11.90;;;;;;;;;;5072237;28;20041;-77
2023/09/11 05:43:12;;;;;;;30.63;13.18;;;;;;;;;;5069873;28;20052;-77
2023/09/11 05:45:38;;;;;;;25.70;12.35;;;;;;;;;;5071870;28;20037;-77
2023/09/11 05:48:04;;;;;;;27.88;11.73;;;;;;;;;;5071407;28;20059;-78
2023/09/11 05:50:31;;;;;;;26.73;12.02;;;;;;;;;;5068759;28;20039;-77
2023/09/11 05:52:57;;;;;;;20.50;12.63;;;;;;;;;;5071410;28;20048;-76
2023/09/11 05:55:23;;;;;;;25.30;12.45;;;;;;;;;;5070321;28;20508;-76
2023/09/11 05:57:49;;;;;;;29.00;12.00;;;;;;;;;;5069703;28;20063;-76
2023/09/11 06:00:15;;;;;;;30.75;12.30;;;;;;;;;;5069723;28;20037;-77
2023/09/11 06:02:44;;;;;;;32.80;12.50;;;;;;;;;;5072208;28;20066;-78
2023/09/11 06:05:11;;;;;;;26.40;11.68;;;;;;;;;;5073573;28;20036;-78
2023/09/11 06:07:37;;;;;;;32.30;12.68;;;;;;;;;;5074910;28;20405;-78
2023/09/11 06:10:04;;;;;;;27.80;12.50;;;;;;;;;;5074717;28;20068;-76
2023/09/11 06:12:30;;;;;;;27.00;12.85;;;;;;;;;;5074867;28;20127;-76
2023/09/11 06:14:56;;;;;;;21.77;11.93;;;;;;;;;;5074556;28;20094;-76
2023/09/11 06:17:22;;;;;;;25.48;12.60;;;;;;;;;;5059811;28;20049;-77
2023/09/11 06:19:48;;;;;;;27.80;12.98;;;;;;;;;;5053946;28;20060;-76
2023/09/11 06:22:14;;;;;;;24.92;12.40;;;;;;;;;;5054526;28;20041;-77
2023/09/11 06:24:40;;;;;;;27.05;11.63;;;;;;;;;;5070447;28;20053;-76
2023/09/11 06:27:07;;;;;;;34.47;12.35;;;;;;;;;;5073107;28;20050;-77
2023/09/11 06:29:33;;;;;;;22.52;12.48;;;;;;;;;;5073236;28;20036;-77
2023/09/11 06:31:59;;;;;;;31.42;12.63;;;;;;;;;;5074834;28;20040;-77
2023/09/11 06:34:27;;;;;;;29.65;12.13;;;;;;;;;;5074080;28;20041;-78
2023/09/11 06:36:53;;;;;;;26.08;12.50;;;;;;;;;;5073100;28;20049;-77
2023/09/11 06:39:21;;;;;;;27.02;12.00;;;;;;;;;;5073174;28;20508;-77
2023/09/11 06:41:47;;;;;;;27.20;11.55;;;;;;;;;;5071447;28;20044;-76
2023/09/11 06:44:13;;;;;;;29.27;11.93;;;;;;;;;;5055620;28;20398;-77
2023/09/11 06:46:39;;;;;;;25.85;12.02;;;;;;;;;;5058371;28;20123;-77
2023/09/11 06:49:05;;;;;;;28.52;12.35;;;;;;;;;;5064597;28;20500;-78
2023/09/11 06:51:34;;;;;;;30.42;11.85;;;;;;;;;;5074425;28;20040;-77
2023/09/11 06:54:01;;;;;;;27.85;11.48;;;;;;;;;;5060246;28;20036;-77
2023/09/11 06:56:27;;;;;;;26.67;11.60;;;;;;;;;;5061155;28;20102;-78
2023/09/11 06:58:53;;;;;;;24.50;11.52;;;;;;;;;;5073017;28;20094;-77
2023/09/11 07:01:19;;;;;;;26.42;11.82;;;;;;;;;;5059199;28;20091;-78
2023/09/11 07:03:46;;;;;;;29.50;12.52;;;;;;;;;;5054011;28;20056;-77
2023/09/11 07:06:13;;;;;;;25.85;11.68;;;;;;;;;;5054143;28;20094;-77
2023/09/11 07:08:39;;;;;;;29.33;12.20;;;;;;;;;;5053766;28;20045;-77
2023/09/11 07:11:05;;;;;;;27.33;11.55;;;;;;;;;;5060529;28;20044;-77
2023/09/11 07:13:31;;;;;;;25.77;12.07;;;;;;;;;;5071214;28;20092;-77
2023/09/11 07:16:01;;;;;;;29.75;11.95;;;;;;;;;;5072917;28;20037;-77
2023/09/11 07:18:27;;;;;;;36.60;11.63;;;;;;;;;;5072522;28;20132;-76
2023/09/11 07:20:54;;;;;;;27.85;11.40;;;;;;;;;;5070547;28;20044;-76
2023/09/11 07:23:22;;;;;;;28.10;11.07;;;;;;;;;;5063423;28;20055;-77
2023/09/11 07:25:48;;;;;;;23.30;10.70;;;;;;;;;;5073118;28;20139;-77
2023/09/11 07:28:14;;;;;;;28.00;11.27;;;;;;;;;;5054067;28;20044;-77
2023/09/11 07:30:40;;;;;;;27.38;11.27;;;;;;;;;;5053865;28;20060;-77
2023/09/11 07:33:06;;;;;;;23.33;11.32;;;;;;;;;;5060068;28;20140;-78
2023/09/11 07:35:35;;;;;;;28.20;11.60;;;;;;;;;;5073590;28;20109;-78
2023/09/11 07:38:01;;;;;;;26.60;11.63;;;;;;;;;;5063703;28;20049;-77
2023/09/11 07:40:27;;;;;;;25.98;11.27;;;;;;;;;;5069327;28;20044;-78
2023/09/11 07:42:54;;;;;;;22.45;10.75;;;;;;;;;;5069620;28;20042;-78
2023/09/11 07:45:21;;;;;;;24.70;11.38;;;;;;;;;;5058132;28;20048;-76
2023/09/11 07:47:47;;;;;;;23.25;10.52;;;;;;;;;;5053305;28;20417;-77
2023/09/11 07:50:13;;;;;;;27.05;11.45;;;;;;;;;;5052751;28;20048;-77
2023/09/11 07:52:39;;;;;;;26.02;10.57;;;;;;;;;;5052243;28;20466;-76
2023/09/11 07:55:06;;;;;;;22.30;10.35;;;;;;;;;;5054559;28;20040;-76
2023/09/11 07:57:33;;;;;;;18.73;10.00;;;;;;;;;;5072035;28;20072;-77
2023/09/11 08:00:04;;;;;;;22.85;10.40;;;;;;;;;;5071699;28;20052;-77
2023/09/11 08:02:30;;;;;;;23.30;10.20;;;;;;;;;;5072622;28;20044;-77
2023/09/11 08:04:56;;;;;;;21.98;10.10;;;;;;;;;;5072895;28;20036;-78
2023/09/11 08:07:22;;;;;;;31.08;9.73;;;;;;;;;;5074404;28;20125;-76
2023/09/11 08:09:48;;;;;;;21.42;9.07;;;;;;;;;;5078500;28;20040;-76
2023/09/11 08:12:16;;;;;;;23.52;10.25;;;;;;;;;;5093699;28;20048;-76
2023/09/11 08:14:43;;;;;;;21.45;8.50;;;;;;;;;;5073847;28;20048;-77
2023/09/11 08:17:09;;;;;;;24.40;8.55;;;;;;;;;;5072940;28;20107;-77
2023/09/11 08:19:35;;;;;;;22.58;9.25;;;;;;;;;;5071727;28;20044;-77
2023/09/11 08:22:03;;;;;;;18.27;8.52;;;;;;;;;;5072751;28;20420;-78
2023/09/11 08:24:29;;;;;;;20.35;8.43;;;;;;;;;;5072216;28;20052;-77
2023/09/11 08:26:55;;;;;;;19.20;8.68;;;;;;;;;;5071353;28;20040;-77
2023/09/11 08:29:21;;;;;;;20.92;8.63;;;;;;;;;;5071746;28;20037;-77
2023/09/11 08:31:47;;;;;;;20.67;8.25;;;;;;;;;;5073177;28;20413;-78
2023/09/11 08:34:14;;;;;;;29.00;8.68;;;;;;;;;;5071478;28;20374;-77
2023/09/11 08:36:40;;;;;;;17.23;7.95;;;;;;;;;;5071203;28;20073;-78
2023/09/11 08:39:06;;;;;;;19.50;8.00;;;;;;;;;;5071143;28;20488;-77
2023/09/11 08:41:33;;;;;;;16.50;7.18;;;;;;;;;;5072771;28;20071;-78
2023/09/11 08:43:59;;;;;;;19.35;7.45;;;;;;;;;;5071477;28;20583;-78
2023/09/11 08:46:27;;;;;;;20.90;7.63;;;;;;;;;;5071594;28;20087;-79
2023/09/11 08:48:54;;;;;;;17.02;7.38;;;;;;;;;;5070847;28;20083;-78
2023/09/11 08:51:29;;;;;;;17.40;7.05;;;;;;;;;;5072321;28;20087;-78
2023/09/11 08:53:57;;;;;;;17.33;6.93;;;;;;;;;;5072115;28;20064;-78
2023/09/11 08:56:23;;;;;;;21.00;7.57;;;;;;;;;;5057801;28;20053;-79
2023/09/11 08:58:51;;;;;;;15.18;7.07;;;;;;;;;;5051095;28;20099;-79
2023/09/11 09:01:18;;;;;;;17.92;7.30;;;;;;;;;;5051565;28;20055;-79
2023/09/11 09:03:45;;;;;;;18.30;7.20;;;;;;;;;;5052083;28;20047;-79
2023/09/11 09:06:11;;;;;;;20.42;7.40;;;;;;;;;;5052221;28;20128;-80
2023/09/11 09:08:38;;;;;;;13.18;7.07;;;;;;;;;;5050260;28;20056;-80
2023/09/11 09:11:04;;;;;;;19.85;7.18;;;;;;;;;;5049417;28;20484;-80
2023/09/11 09:13:37;;;;;;;12.75;6.55;;;;;;;;;;5049596;28;20044;-77
2023/09/11 09:16:03;;;;;;;15.95;6.47;;;;;;;;;;5067877;28;20445;-80
2023/09/11 09:18:29;;;;;;;13.55;6.90;;;;;;;;;;5051486;28;20049;-79
2023/09/11 09:20:55;;;;;;;15.98;6.63;;;;;;;;;;5052130;28;20041;-79
2023/09/11 09:23:32;;;;;;;21.25;6.68;;;;;;;;;;5050382;28;20067;-79
2023/09/11 09:26:06;;;;;;;13.57;6.22;;;;;;;;;;5050977;28;20396;-80
2023/09/11 09:28:33;;;;;;;11.80;6.00;;;;;;;;;;5052177;28;20052;-79
2023/09/11 09:30:59;;;;;;;13.20;6.13;;;;;;;;;;5052107;28;20131;-79
2023/09/11 09:33:25;;;;;;;13.90;6.80;;;;;;;;;;5051850;28;20445;-78
2023/09/11 09:35:51;;;;;;;14.98;6.43;;;;;;;;;;5050572;28;20048;-78
2023/09/11 09:38:20;;;;;;;15.52;6.43;;;;;;;;;;5055152;28;20067;-79
2023/09/11 09:40:47;;;;;;;14.73;7.00;;;;;;;;;;5055475;28;20116;-79
2023/09/11 09:43:17;;;;;;;17.63;6.82;;;;;;;;;;5055334;28;20041;-79
2023/09/11 09:45:44;;;;;;;19.33;6.80;;;;;;;;;;5055590;28;20459;-79
2023/09/11 09:48:14;;;;;;;14.50;6.40;;;;;;;;;;5053839;28;20053;-81
2023/09/11 09:50:52;;;;;;;14.30;6.38;;;;;;;;;;5053336;28;20045;-83
2023/09/11 09:53:22;;;;;;;16.40;6.70;;;;;;;;;;5070429;28;20060;-83
2023/09/11 09:55:48;;;;;;;14.07;6.38;;;;;;;;;;5062325;28;20131;-83
2023/09/11 09:58:14;;;;;;;13.93;5.97;;;;;;;;;;5075604;28;20396;-83
2023/09/11 10:00:40;;;;;;;15.35;6.90;;;;;;;;;;5073304;28;20052;-83
2023/09/11 10:03:08;;;;;;;15.68;6.65;;;;;;;;;;5074460;28;20058;-84
2023/09/11 10:05:34;;;;;;;17.05;6.38;;;;;;;;;;5091067;28;20037;-84
2023/09/11 10:08:00;;;;;;;10.48;6.93;;;;;;;;;;5075691;28;20041;-82
2023/09/11 10:10:27;;;;;;;14.40;6.70;;;;;;;;;;5074378;28;20048;-82
2023/09/11 10:13:13;;;;;;;15.05;7.20;;;;;;;;;;5074387;28;20048;-82
2023/09/11 10:15:44;;;;;;;17.55;7.70;;;;;;;;;;5076015;28;20055;-83
2023/09/11 10:18:11;;;;;;;15.73;7.00;;;;;;;;;;5095719;28;20041;-83
2023/09/11 10:20:37;;;;;;;19.15;7.30;;;;;;;;;;5076483;28;20048;-83
2023/09/11 10:23:04;;;;;;;17.10;6.78;;;;;;;;;;5073494;28;20143;-83
2023/09/11 10:25:43;;;;;;;19.58;8.00;;;;;;;;;;5091607;28;20071;-83
2023/09/11 10:28:14;;;;;;;17.17;7.57;;;;;;;;;;5074519;28;20041;-83
2023/09/11 10:30:53;;;;;;;15.85;7.50;;;;;;;;;;5073721;28;20087;-82
2023/09/11 10:33:22;;;;;;;15.48;7.70;;;;;;;;;;5072789;28;20083;-82
2023/09/11 10:35:52;;;;;;;16.52;7.38;;;;;;;;;;5074006;28;20064;-83
2023/09/11 10:38:19;;;;;;;10.85;7.32;;;;;;;;;;5072047;28;20051;-85
2023/09/11 10:40:45;;;;;;;15.48;8.40;;;;;;;;;;5051945;28;20350;-78
2023/09/11 10:43:12;;;;;;;19.23;8.20;;;;;;;;;;5071192;28;20098;-79
2023/09/11 10:45:38;;;;;;;14.50;7.53;;;;;;;;;;5069524;28;20043;-78
2023/09/11 10:48:04;;;;;;;19.27;9.23;;;;;;;;;;5070554;28;20079;-79
2023/09/11 10:50:43;;;;;;;13.48;8.73;;;;;;;;;;5071446;28;20075;-78
2023/09/11 10:53:09;;;;;;;16.02;7.55;;;;;;;;;;5072038;28;20051;-80
2023/09/11 10:55:36;;;;;;;16.23;8.50;;;;;;;;;;5070596;28;20048;-77
2023/09/11 10:58:06;;;;;;;18.33;9.45;;;;;;;;;;5069756;28;20040;-78
2023/09/11 11:00:39;;;;;;;18.35;10.18;;;;;;;;;;5062995;28;20120;-79
2023/09/11 11:03:05;;;;;;;17.75;9.68;;;;;;;;;;5060325;28;20045;-79
2023/09/11 11:05:35;;;;;;;16.52;9.45;;;;;;;;;;5050682;28;20131;-78
2023/09/11 11:08:01;;;;;;;17.25;9.13;;;;;;;;;;5050529;28;20045;-79
2023/09/11 11:10:27;;;;;;;15.60;8.88;;;;;;;;;;5050341;28;20098;-77
2023/09/11 11:13:07;;;;;;;17.90;9.35;;;;;;;;;;5060385;28;20044;-79
2023/09/11 11:15:33;;;;;;;15.27;9.60;;;;;;;;;;5061685;28;20477;-78
2023/09/11 11:18:06;;;;;;;14.18;9.65;;;;;;;;;;5072105;28;20123;-78
2023/09/11 11:20:32;;;;;;;15.02;9.20;;;;;;;;;;5073500;28;20044;-79
2023/09/11 11:23:09;;;;;;;17.15;9.35;;;;;;;;;;5073448;28;20037;-78
2023/09/11 11:25:35;;;;;;;15.23;8.35;;;;;;;;;;5065556;28;20486;-78
2023/09/11 11:28:08;;;;;;;13.55;8.30;;;;;;;;;;5053785;28;20048;-78
2023/09/11 11:30:36;;;;;;;21.23;9.98;;;;;;;;;;5058167;28;20105;-78
2023/09/11 11:33:04;;;;;;;14.50;8.70;;;;;;;;;;5060318;28;20485;-78
2023/09/11 11:35:31;;;;;;;14.55;8.27;;;;;;;;;;5056661;28;20040;-78
2023/09/11 11:37:57;;;;;;;13.05;9.25;;;;;;;;;;5071651;28;20170;-79
2023/09/11 11:40:23;;;;;;;12.80;8.38;;;;;;;;;;5072226;28;20432;-78
2023/09/11 11:42:50;;;;;;;16.45;7.60;;;;;;;;;;5071985;28;20382;-80
2023/09/11 11:45:16;;;;;;;15.23;7.30;;;;;;;;;;5072130;28;20048;-79
2023/09/11 11:47:42;;;;;;;12.75;7.88;;;;;;;;;;5073235;28;20151;-78
2023/09/11 11:50:12;;;;;;;14.50;7.05;;;;;;;;;;5071769;28;20084;-79
2023/09/11 11:52:38;;;;;;;14.32;7.45;;;;;;;;;;5072922;28;20072;-80
2023/09/11 11:55:20;;;;;;;18.45;9.20;;;;;;;;;;5069651;28;20048;-79
2023/09/11 11:57:50;;;;;;;10.75;6.80;;;;;;;;;;5052958;28;20041;-78
2023/09/11 12:00:16;;;;;;;11.23;6.95;;;;;;;;;;5064366;28;20057;-79
2023/09/11 12:02:42;;;;;;;13.60;7.00;;;;;;;;;;5048821;28;20052;-79
2023/09/11 12:05:12;;;;;;;17.50;7.88;;;;;;;;;;5049763;28;20542;-80
2023/09/11 12:07:38;;;;;;;14.32;6.65;;;;;;;;;;5049765;28;20566;-80
2023/09/11 12:10:05;;;;;;;14.80;7.50;;;;;;;;;;5049846;28;20037;-79
2023/09/11 12:12:31;;;;;;;13.45;7.95;;;;;;;;;;5050067;28;20060;-80
2023/09/11 12:14:58;;;;;;;12.75;7.60;;;;;;;;;;5066900;28;20109;-79
2023/09/11 12:17:25;;;;;;;11.40;7.50;;;;;;;;;;5061547;28;20130;-80
2023/09/11 12:19:51;;;;;;;12.48;6.97;;;;;;;;;;5057226;28;20044;-79
2023/09/11 12:22:19;;;;;;;13.07;7.15;;;;;;;;;;5069453;28;20075;-78
2023/09/11 12:24:45;;;;;;;12.82;5.43;;;;;;;;;;5069257;28;20096;-79
2023/09/11 12:27:11;;;;;;;14.70;4.82;;;;;;;;;;5068196;28;20358;-79
2023/09/11 12:29:37;;;;;;;10.70;4.68;;;;;;;;;;5068828;28;20428;-79
2023/09/11 12:32:03;;;;;;;10.63;4.90;;;;;;;;;;5069025;28;20063;-79
2023/09/11 12:34:47;;;;;;;10.68;4.80;;;;;;;;;;5065843;28;20056;-80
2023/09/11 12:37:13;;;;;;;13.55;5.13;;;;;;;;;;5069609;28;20054;-77
2023/09/11 12:39:40;;;;;;;11.27;4.90;;;;;;;;;;5074119;28;20102;-77
2023/09/11 12:42:06;;;;;;;14.18;4.90;;;;;;;;;;5074788;28;20049;-77
2023/09/11 12:44:32;;;;;;;9.18;4.40;;;;;;;;;;5071069;28;20090;-77
2023/09/11 12:47:02;;;;;;;14.13;4.40;;;;;;;;;;5069553;28;20048;-78
2023/09/11 12:49:28;;;;;;;9.13;4.72;;;;;;;;;;5067968;28;20348;-79
2023/09/11 12:51:55;;;;;;;10.50;4.80;;;;;;;;;;5069402;28;20047;-78
2023/09/11 12:54:21;;;;;;;10.50;4.80;;;;;;;;;;5052670;28;20091;-78
2023/09/11 12:56:47;;;;;;;9.00;4.60;;;;;;;;;;5063108;28;20057;-76
2023/09/11 12:59:14;;;;;;;10.35;5.00;;;;;;;;;;5057624;28;20040;-78
2023/09/11 13:01:40;;;;;;;10.57;4.88;;;;;;;;;;5066757;28;20048;-76
2023/09/11 13:04:06;;;;;;;12.48;5.03;;;;;;;;;;5083902;28;20493;-77
2023/09/11 13:06:32;;;;;;;10.57;5.57;;;;;;;;;;5067440;28;20057;-77
2023/09/11 13:08:58;;;;;;;11.02;4.60;;;;;;;;;;5056210;28;20051;-77
2023/09/11 13:11:24;;;;;;;9.10;4.80;;;;;;;;;;5068035;28;20151;-77
2023/09/11 13:13:50;;;;;;;7.70;3.80;;;;;;;;;;5052260;28;20135;-76
2023/09/11 13:16:17;;;;;;;6.10;3.45;;;;;;;;;;5056054;28;20041;-77
2023/09/11 13:18:43;;;;;;;7.50;3.80;;;;;;;;;;5053608;28;20141;-77
2023/09/11 13:21:09;;;;;;;9.20;4.18;;;;;;;;;;5052998;28;20076;-80
2023/09/11 13:23:35;;;;;;;11.82;3.95;;;;;;;;;;5052416;28;20068;-77
2023/09/11 13:26:01;;;;;;;13.02;3.80;;;;;;;;;;5052021;28;20061;-76
2023/09/11 13:28:27;;;;;;;9.70;3.95;;;;;;;;;;5052653;28;20042;-77
2023/09/11 13:30:59;;;;;;;8.20;3.88;;;;;;;;;;5052077;28;20052;-77
2023/09/11 13:33:25;;;;;;;12.63;3.80;;;;;;;;;;5052492;28;20057;-74
2023/09/11 13:35:51;;;;;;;11.18;4.28;;;;;;;;;;5053029;28;20045;-74
2023/09/11 13:38:17;;;;;;;8.32;4.53;;;;;;;;;;5052583;28;20053;-74
2023/09/11 13:40:47;;;;;;;7.47;3.65;;;;;;;;;;5056107;28;20048;-74
2023/09/11 13:43:14;;;;;;;7.18;3.63;;;;;;;;;;5069979;28;20434;-74
2023/09/11 13:45:40;;;;;;;10.18;4.10;;;;;;;;;;5065578;28;20040;-74
2023/09/11 13:48:06;;;;;;;9.63;3.90;;;;;;;;;;5052693;28;20053;-75
2023/09/11 13:50:32;;;;;;;9.07;3.60;;;;;;;;;;5053977;28;20048;-75
2023/09/11 13:52:58;;;;;;;10.50;4.05;;;;;;;;;;5058005;28;20036;-74
2023/09/11 13:55:24;;;;;;;7.20;4.20;;;;;;;;;;5066381;28;20353;-74
2023/09/11 13:57:50;;;;;;;9.05;3.90;;;;;;;;;;5052294;28;20479;-76
2023/09/11 14:00:17;;;;;;;10.43;4.15;;;;;;;;;;5053374;28;20133;-75
2023/09/11 14:02:43;;;;;;;10.35;4.05;;;;;;;;;;5061977;28;20041;-76
2023/09/11 14:05:09;;;;;;;7.85;3.83;;;;;;;;;;5051737;28;20048;-76
2023/09/11 14:07:35;;;;;;;8.00;4.05;;;;;;;;;;5033984;28;20043;-76
2023/09/11 14:10:01;;;;;;;7.40;3.50;;;;;;;;;;5050212;28;20144;-76
2023/09/11 14:12:27;;;;;;;8.18;3.90;;;;;;;;;;5062488;28;20147;-75
2023/09/11 14:14:53;;;;;;;6.40;3.65;;;;;;;;;;5053070;28;20049;-77
2023/09/11 14:17:19;;;;;;;7.25;3.85;;;;;;;;;;5054868;28;20132;-75
2023/09/11 14:19:45;;;;;;;11.02;4.40;;;;;;;;;;5053539;28;20049;-75
2023/09/11 14:22:11;;;;;;;7.43;4.53;;;;;;;;;;5069386;28;20106;-74